createdAt,value
2019-05-26T00:00:09.912Z,13.79
2019-05-26T00:02:39.431Z,13.72
2019-05-26T00:05:09.215Z,13.64
2019-05-26T00:07:38.673Z,13.49
2019-05-26T00:10:09.304Z,13.47
2019-05-26T00:12:38.909Z,13.54
2019-05-26T00:15:09.170Z,13.61
2019-05-26T00:17:38.613Z,13.66
2019-05-26T00:20:08.698Z,13.51
2019-05-26T00:22:38.143Z,13.52
2019-05-26T00:25:08.295Z,13.49
2019-05-26T00:27:37.768Z,13.51
2019-05-26T00:30:08.821Z,13.47
2019-05-26T00:32:38.736Z,13.40
2019-05-26T00:35:11.321Z,13.32
2019-05-26T00:37:48.932Z,13.39
2019-05-26T00:40:12.290Z,13.35
2019-05-26T00:42:41.800Z,13.34
2019-05-26T00:45:12.752Z,13.30
2019-05-26T00:47:42.206Z,13.21
2019-05-26T00:50:12.759Z,13.16
2019-05-26T00:52:42.203Z,13.23
2019-05-26T00:55:12.171Z,13.25
2019-05-26T00:57:41.620Z,13.15
2019-05-26T01:00:11.759Z,13.10
2019-05-26T01:02:41.345Z,13.02
2019-05-26T01:05:11.216Z,13.01
2019-05-26T01:07:40.650Z,13.05
2019-05-26T01:10:10.830Z,12.80
2019-05-26T01:12:40.271Z,13.01
2019-05-26T01:15:10.466Z,12.90
2019-05-26T01:17:40.151Z,12.85
2019-05-26T01:20:09.999Z,12.84
2019-05-26T01:22:39.463Z,12.81
2019-05-26T01:25:09.516Z,12.77
2019-05-26T01:27:38.969Z,12.70
2019-05-26T01:30:09.205Z,12.70
2019-05-26T01:32:38.688Z,12.68
2019-05-26T01:35:09.014Z,12.69
2019-05-26T01:37:39.595Z,12.78
2019-05-26T01:40:09.931Z,12.57
2019-05-26T01:42:39.390Z,12.55
2019-05-26T01:45:09.638Z,12.62
2019-05-26T01:47:39.150Z,12.70
2019-05-26T01:50:09.426Z,12.68
2019-05-26T01:52:38.865Z,12.69
2019-05-26T01:55:08.394Z,12.62
2019-05-26T01:57:37.956Z,12.26
2019-05-26T02:00:08.959Z,12.53
2019-05-26T02:02:38.415Z,12.49
2019-05-26T02:05:08.302Z,12.41
2019-05-26T02:07:37.740Z,12.39
2019-05-26T02:10:10.115Z,12.33
2019-05-26T02:12:39.554Z,12.41
2019-05-26T02:15:09.616Z,12.38
2019-05-26T02:17:39.075Z,12.36
2019-05-26T02:20:08.970Z,12.37
2019-05-26T02:22:38.686Z,12.26
2019-05-26T02:25:11.138Z,12.25
2019-05-26T02:27:40.607Z,12.14
2019-05-26T02:30:11.060Z,12.10
2019-05-26T02:32:40.519Z,11.98
2019-05-26T02:35:10.599Z,11.99
2019-05-26T02:37:40.039Z,11.96
2019-05-26T02:40:10.976Z,11.81
2019-05-26T02:42:40.608Z,11.92
2019-05-26T02:45:14.776Z,11.95
2019-05-26T02:47:45.099Z,12.01
2019-05-26T02:50:16.976Z,11.92
2019-05-26T02:52:46.423Z,11.93
2019-05-26T02:55:16.261Z,11.97
2019-05-26T02:57:45.719Z,11.91
2019-05-26T03:00:24.574Z,11.88
2019-05-26T03:02:54.109Z,11.92
2019-05-26T03:05:23.535Z,11.95
2019-05-26T03:07:53.636Z,11.92
2019-05-26T03:10:23.075Z,11.83
2019-05-26T03:12:53.851Z,11.89
2019-05-26T03:15:23.382Z,11.92
2019-05-26T03:17:55.503Z,11.76
2019-05-26T03:20:25.109Z,11.71
2019-05-26T03:22:56.257Z,11.78
2019-05-26T03:25:25.694Z,11.79
2019-05-26T03:27:55.226Z,11.79
2019-05-26T03:30:24.674Z,11.82
2019-05-26T03:32:54.115Z,11.82
2019-05-26T03:35:23.573Z,11.66
2019-05-26T03:37:53.053Z,11.69
2019-05-26T03:40:22.474Z,11.69
2019-05-26T03:42:51.914Z,11.66
2019-05-26T03:45:27.985Z,11.67
2019-05-26T03:47:57.436Z,11.57
2019-05-26T03:50:26.869Z,11.56
2019-05-26T03:52:56.331Z,11.73
2019-05-26T03:55:25.773Z,11.73
2019-05-26T03:57:55.215Z,11.79
2019-05-26T04:00:24.815Z,11.71
2019-05-26T04:02:54.246Z,11.80
2019-05-26T04:05:23.776Z,11.87
2019-05-26T04:07:53.233Z,11.80
2019-05-26T04:10:23.241Z,11.93
2019-05-26T04:12:52.685Z,11.93
2019-05-26T04:15:22.147Z,11.92
2019-05-26T04:17:51.589Z,11.99
2019-05-26T04:20:21.116Z,12.12
2019-05-26T04:22:50.556Z,12.16
2019-05-26T04:25:20.075Z,12.24
2019-05-26T04:27:49.533Z,12.31
2019-05-26T04:32:47.678Z,12.37
2019-05-26T04:35:17.213Z,12.51
2019-05-26T04:37:46.648Z,12.65
2019-05-26T04:40:26.409Z,12.78
2019-05-26T04:42:47.271Z,12.88
2019-05-26T04:45:16.844Z,12.94
2019-05-26T04:47:46.316Z,13.02
2019-05-26T04:50:16.789Z,13.08
2019-05-26T04:53:04.726Z,13.12
2019-05-26T04:55:17.548Z,13.14
2019-05-26T04:57:46.985Z,13.24
2019-05-26T05:00:17.339Z,13.27
2019-05-26T05:02:46.792Z,13.37
2019-05-26T05:05:16.465Z,13.41
2019-05-26T05:07:46.172Z,13.45
2019-05-26T05:10:15.977Z,13.33
2019-05-26T05:12:45.422Z,13.39
2019-05-26T05:15:15.192Z,13.31
2019-05-26T05:17:44.632Z,13.46
2019-05-26T05:20:15.077Z,13.51
2019-05-26T05:22:44.535Z,13.47
2019-05-26T05:25:15.847Z,13.54
2019-05-26T05:27:45.561Z,13.61
2019-05-26T05:30:15.527Z,13.62
2019-05-26T05:32:44.974Z,13.67
2019-05-26T05:35:16.119Z,13.81
2019-05-26T05:37:45.589Z,13.96
2019-05-26T05:40:15.371Z,14.10
2019-05-26T05:42:44.812Z,13.95
2019-05-26T05:45:15.506Z,14.14
2019-05-26T05:47:44.944Z,13.95
2019-05-26T05:50:15.014Z,14.15
2019-05-26T05:52:44.477Z,14.46
2019-05-26T05:55:14.259Z,14.57
2019-05-26T05:57:43.958Z,14.73
2019-05-26T06:00:15.380Z,14.82
2019-05-26T06:02:44.854Z,14.78
2019-05-26T06:05:14.639Z,14.90
2019-05-26T06:07:44.255Z,15.04
2019-05-26T06:10:13.956Z,15.20
2019-05-26T06:12:43.418Z,15.46
2019-05-26T06:15:15.629Z,15.77
2019-05-26T06:17:44.772Z,15.96
2019-05-26T06:20:14.880Z,16.15
2019-05-26T06:22:44.303Z,16.35
2019-05-26T06:25:14.158Z,16.54
2019-05-26T06:27:43.667Z,16.70
2019-05-26T06:30:14.327Z,16.94
2019-05-26T06:32:43.772Z,17.07
2019-05-26T06:35:13.648Z,16.95
2019-05-26T06:37:43.111Z,17.13
2019-05-26T06:40:13.674Z,17.38
2019-05-26T06:42:43.117Z,17.61
2019-05-26T06:45:13.794Z,17.88
2019-05-26T06:47:43.254Z,18.23
2019-05-26T06:50:13.122Z,18.40
2019-05-26T06:52:42.569Z,18.50
2019-05-26T06:55:13.782Z,18.69
2019-05-26T06:57:43.239Z,19.05
2019-05-26T07:00:13.223Z,19.10
2019-05-26T07:02:42.670Z,19.08
2019-05-26T07:05:12.375Z,18.65
2019-05-26T07:07:41.835Z,18.47
2019-05-26T07:10:13.750Z,18.77
2019-05-26T07:12:43.215Z,18.70
2019-05-26T07:15:13.269Z,18.96
2019-05-26T07:17:42.735Z,19.08
2019-05-26T07:20:12.730Z,19.41
2019-05-26T07:22:42.201Z,19.48
2019-05-26T07:25:12.392Z,19.67
2019-05-26T07:27:42.004Z,19.42
2019-05-26T07:30:12.377Z,19.75
2019-05-26T07:32:41.826Z,19.97
2019-05-26T07:35:11.437Z,20.14
2019-05-26T07:37:40.885Z,20.25
2019-05-26T07:40:10.842Z,20.61
2019-05-26T07:42:40.305Z,20.48
2019-05-26T07:45:10.062Z,20.61
2019-05-26T07:47:39.518Z,20.44
2019-05-26T07:50:09.492Z,20.34
2019-05-26T07:52:38.940Z,20.45
2019-05-26T07:55:08.729Z,20.23
2019-05-26T07:57:38.392Z,20.51
2019-05-26T08:00:09.075Z,20.55
2019-05-26T08:02:38.520Z,20.82
2019-05-26T08:05:09.181Z,20.78
2019-05-26T08:07:38.653Z,20.30
2019-05-26T08:10:09.237Z,20.48
2019-05-26T08:12:38.689Z,20.69
2019-05-26T08:15:08.899Z,20.81
2019-05-26T08:17:38.416Z,20.98
2019-05-26T08:20:09.993Z,20.86
2019-05-26T08:22:39.466Z,20.81
2019-05-26T08:25:09.528Z,21.09
2019-05-26T08:27:38.997Z,20.86
2019-05-26T08:30:10.401Z,20.58
2019-05-26T08:32:39.828Z,20.46
2019-05-26T08:35:09.640Z,20.38
2019-05-26T08:37:39.080Z,20.25
2019-05-26T08:40:18.272Z,20.54
2019-05-26T08:42:52.004Z,20.95
2019-05-26T08:45:23.097Z,21.28
2019-05-26T08:47:53.084Z,21.15
2019-05-26T08:50:23.568Z,21.08
2019-05-26T08:52:53.025Z,21.42
2019-05-26T08:55:22.651Z,21.50
2019-05-26T08:57:52.190Z,21.64
2019-05-26T09:00:23.681Z,21.71
2019-05-26T09:02:53.106Z,22.27
2019-05-26T09:05:22.644Z,22.24
2019-05-26T09:07:52.118Z,22.49
2019-05-26T09:10:21.572Z,22.11
2019-05-26T09:13:00.954Z,22.37
2019-05-26T09:15:22.489Z,22.34
2019-05-26T09:17:51.949Z,22.70
2019-05-26T09:20:21.868Z,22.97
2019-05-26T09:22:51.336Z,22.60
2019-05-26T09:25:21.062Z,22.70
2019-05-26T09:27:50.511Z,22.31
2019-05-26T09:30:20.607Z,22.52
2019-05-26T09:32:50.104Z,22.52
2019-05-26T09:35:19.646Z,22.24
2019-05-26T09:37:49.103Z,22.36
2019-05-26T09:40:19.047Z,22.33
2019-05-26T09:42:48.517Z,22.52
2019-05-26T09:45:18.444Z,22.28
2019-05-26T09:47:47.917Z,22.56
2019-05-26T09:50:18.643Z,22.33
2019-05-26T09:52:48.121Z,22.44
2019-05-26T09:55:17.788Z,22.38
2019-05-26T09:57:47.232Z,22.57
2019-05-26T10:00:17.428Z,22.63
2019-05-26T10:02:46.873Z,22.94
2019-05-26T10:05:16.405Z,23.17
2019-05-26T10:07:45.870Z,23.23
2019-05-26T10:10:15.725Z,23.42
2019-05-26T10:12:45.199Z,23.58
2019-05-26T10:15:16.663Z,23.41
2019-05-26T10:17:46.109Z,23.58
2019-05-26T10:20:18.489Z,23.98
2019-05-26T10:22:47.931Z,23.88
2019-05-26T10:25:17.444Z,23.40
2019-05-26T10:27:46.907Z,23.55
2019-05-26T10:30:17.058Z,23.43
2019-05-26T10:32:46.890Z,23.67
2019-05-26T10:35:16.424Z,23.52
2019-05-26T10:37:45.892Z,23.62
2019-05-26T10:40:16.735Z,23.29
2019-05-26T10:42:46.183Z,23.56
2019-05-26T10:45:15.988Z,24.06
2019-05-26T10:47:45.435Z,24.39
2019-05-26T10:50:16.917Z,23.99
2019-05-26T10:52:46.395Z,24.59
2019-05-26T10:55:16.001Z,24.66
2019-05-26T10:57:45.491Z,24.66
2019-05-26T11:00:15.414Z,24.71
2019-05-26T11:02:44.866Z,24.21
2019-05-26T11:05:14.652Z,24.20
2019-05-26T11:07:44.091Z,24.10
2019-05-26T11:10:14.487Z,24.18
2019-05-26T11:12:43.956Z,24.22
2019-05-26T11:15:13.939Z,24.25
2019-05-26T11:17:43.414Z,24.76
2019-05-26T11:20:14.185Z,24.56
2019-05-26T11:22:43.716Z,24.90
2019-05-26T11:25:14.183Z,24.81
2019-05-26T11:27:43.656Z,24.66
2019-05-26T11:30:14.566Z,25.23
2019-05-26T11:32:44.122Z,25.51
2019-05-26T11:35:13.880Z,25.23
2019-05-26T11:37:43.343Z,25.42
2019-05-26T11:40:13.623Z,25.53
2019-05-26T11:42:45.052Z,25.91
2019-05-26T11:45:15.961Z,25.54
2019-05-26T11:47:45.407Z,25.49
2019-05-26T11:50:16.052Z,25.79
2019-05-26T11:52:45.980Z,26.17
2019-05-26T11:55:15.676Z,26.37
2019-05-26T11:57:45.139Z,26.72
2019-05-26T12:00:17.153Z,26.72
2019-05-26T12:02:47.344Z,26.95
2019-05-26T12:05:18.157Z,27.20
2019-05-26T12:07:47.663Z,27.42
2019-05-26T12:10:17.629Z,27.04
2019-05-26T12:12:47.152Z,27.46
2019-05-26T12:15:17.665Z,27.59
2019-05-26T12:17:47.156Z,27.93
2019-05-26T12:20:17.212Z,27.94
2019-05-26T12:22:46.669Z,28.35
2019-05-26T12:25:16.546Z,27.73
2019-05-26T12:27:45.990Z,27.90
2019-05-26T12:30:17.430Z,27.50
2019-05-26T12:32:47.045Z,27.39
2019-05-26T12:35:16.587Z,27.26
2019-05-26T12:37:48.323Z,27.20
2019-05-26T12:40:17.691Z,26.98
2019-05-26T12:42:47.127Z,27.09
2019-05-26T12:45:17.284Z,26.54
2019-05-26T12:47:46.773Z,27.04
2019-05-26T12:50:17.317Z,26.87
2019-05-26T12:52:46.771Z,26.73
2019-05-26T12:55:16.304Z,26.94
2019-05-26T12:57:45.745Z,27.28
2019-05-26T13:00:15.650Z,27.20
2019-05-26T13:02:45.110Z,27.65
2019-05-26T13:05:14.868Z,27.30
2019-05-26T13:07:44.317Z,27.40
2019-05-26T13:10:14.283Z,26.91
2019-05-26T13:12:43.721Z,26.26
2019-05-26T13:15:14.274Z,26.48
2019-05-26T13:17:43.744Z,26.28
2019-05-26T13:20:13.936Z,25.70
2019-05-26T13:22:43.411Z,25.83
2019-05-26T13:25:14.058Z,25.31
2019-05-26T13:27:43.571Z,24.95
2019-05-26T13:30:19.640Z,24.61
2019-05-26T13:32:49.862Z,25.19
2019-05-26T13:35:19.638Z,25.18
2019-05-26T13:37:49.156Z,25.19
2019-05-26T13:40:18.929Z,24.97
2019-05-26T13:42:48.388Z,25.05
2019-05-26T13:45:23.207Z,25.64
2019-05-26T13:47:49.290Z,26.02
2019-05-26T13:50:19.464Z,26.19
2019-05-26T13:52:48.907Z,26.47
2019-05-26T13:55:18.555Z,26.25
2019-05-26T13:57:49.523Z,26.00
2019-05-26T14:00:20.263Z,25.70
2019-05-26T14:02:49.707Z,25.94
2019-05-26T14:05:19.245Z,25.61
2019-05-26T14:07:48.699Z,25.11
2019-05-26T14:10:34.115Z,25.46
2019-05-26T14:13:04.017Z,25.36
2019-05-26T14:15:38.549Z,25.71
2019-05-26T14:18:06.038Z,25.84
2019-05-26T14:20:42.041Z,25.32
2019-05-26T14:23:12.134Z,25.16
2019-05-26T14:25:41.582Z,25.05
2019-05-26T14:28:11.139Z,25.06
2019-05-26T14:30:40.613Z,24.61
2019-05-26T14:33:10.384Z,25.03
2019-05-26T14:35:39.831Z,24.99
2019-05-26T14:38:09.296Z,25.11
2019-05-26T14:40:38.735Z,25.38
2019-05-26T14:43:08.185Z,25.25
2019-05-26T14:45:52.033Z,25.28
2019-05-26T14:48:08.947Z,25.45
2019-05-26T14:50:40.684Z,25.64
2019-05-26T14:53:09.646Z,25.17
2019-05-26T14:55:39.162Z,25.89
2019-05-26T14:58:15.889Z,25.45
2019-05-26T15:00:39.785Z,25.80
2019-05-26T15:03:09.233Z,25.82
2019-05-26T15:05:38.690Z,25.90
2019-05-26T15:08:08.152Z,26.02
2019-05-26T15:10:37.603Z,26.75
2019-05-26T15:13:07.048Z,27.61
2019-05-26T15:15:36.511Z,28.34
2019-05-26T15:18:06.050Z,28.49
2019-05-26T15:20:35.523Z,28.55
2019-05-26T15:23:04.963Z,28.49
2019-05-26T15:25:34.423Z,29.07
2019-05-26T15:28:03.872Z,29.77
2019-05-26T15:30:33.310Z,29.71
2019-05-26T15:33:02.775Z,29.59
2019-05-26T15:35:32.235Z,29.90
2019-05-26T15:38:01.684Z,28.96
2019-05-26T15:40:31.142Z,28.38
2019-05-26T15:43:00.587Z,28.06
2019-05-26T15:45:30.033Z,28.47
2019-05-26T15:47:59.486Z,28.31
2019-05-26T15:50:29.017Z,28.09
2019-05-26T15:52:59.267Z,28.24
2019-05-26T15:55:28.836Z,27.62
2019-05-26T15:57:58.275Z,27.18
2019-05-26T16:00:27.783Z,27.20
2019-05-26T16:02:57.245Z,27.39
2019-05-26T16:05:26.686Z,27.61
2019-05-26T16:07:56.149Z,28.09
2019-05-26T16:10:25.592Z,28.00
2019-05-26T16:12:55.037Z,27.97
2019-05-26T16:15:24.502Z,28.23
2019-05-26T16:17:53.958Z,28.08
2019-05-26T16:20:23.481Z,26.50
2019-05-26T16:22:52.944Z,26.02
2019-05-26T16:25:22.407Z,25.73
2019-05-26T16:27:51.868Z,25.66
2019-05-26T16:30:21.402Z,25.29
2019-05-26T16:32:50.850Z,24.93
2019-05-26T16:35:20.458Z,25.37
2019-05-26T16:37:49.906Z,25.64
2019-05-26T16:40:19.506Z,25.39
2019-05-26T16:42:48.954Z,25.65
2019-05-26T16:45:19.037Z,25.70
2019-05-26T16:47:48.623Z,25.36
2019-05-26T16:50:18.072Z,24.98
2019-05-26T16:52:47.611Z,25.03
2019-05-26T16:55:18.022Z,24.96
2019-05-26T16:57:47.463Z,24.99
2019-05-26T17:00:17.062Z,24.57
2019-05-26T17:02:46.524Z,25.07
2019-05-26T17:05:16.091Z,24.93
2019-05-26T17:07:45.555Z,24.83
2019-05-26T17:10:15.074Z,25.05
2019-05-26T17:12:44.532Z,25.16
2019-05-26T17:15:14.825Z,25.11
2019-05-26T17:17:44.305Z,25.09
2019-05-26T17:20:15.673Z,24.75
2019-05-26T17:22:45.130Z,24.77
2019-05-26T17:25:17.348Z,24.56
2019-05-26T17:27:46.794Z,24.62
2019-05-26T17:30:16.560Z,24.73
2019-05-26T17:32:46.006Z,24.71
2019-05-26T17:35:15.606Z,24.33
2019-05-26T17:37:45.077Z,24.53
2019-05-26T17:40:14.992Z,24.00
2019-05-26T17:42:44.530Z,24.15
2019-05-26T17:45:14.185Z,24.19
2019-05-26T17:47:43.629Z,23.91
2019-05-26T17:50:13.891Z,24.21
2019-05-26T17:52:43.335Z,24.14
2019-05-26T17:55:13.123Z,23.88
2019-05-26T17:57:42.587Z,23.69
2019-05-26T18:00:14.009Z,23.22
2019-05-26T18:02:43.542Z,23.47
2019-05-26T18:05:13.309Z,23.31
2019-05-26T18:07:42.753Z,23.47
2019-05-26T18:10:12.616Z,23.34
2019-05-26T18:12:42.077Z,23.23
2019-05-26T18:15:12.176Z,23.14
2019-05-26T18:17:47.254Z,22.78
2019-05-26T18:20:13.118Z,22.78
2019-05-26T18:22:42.615Z,22.77
2019-05-26T18:25:12.763Z,22.78
2019-05-26T18:27:42.267Z,22.53
2019-05-26T18:30:12.097Z,22.48
2019-05-26T18:32:41.555Z,22.59
2019-05-26T18:35:11.337Z,22.49
2019-05-26T18:37:40.822Z,22.88
2019-05-26T18:40:10.476Z,22.81
2019-05-26T18:42:39.927Z,22.72
2019-05-26T18:45:10.363Z,22.87
2019-05-26T18:47:39.808Z,22.86
2019-05-26T18:50:09.780Z,22.90
2019-05-26T18:52:39.432Z,22.85
2019-05-26T18:55:09.521Z,22.95
2019-05-26T18:57:38.978Z,22.90
2019-05-26T19:00:11.011Z,22.80
2019-05-26T19:02:40.522Z,22.84
2019-05-26T19:05:10.161Z,22.96
2019-05-26T19:07:39.606Z,23.00
2019-05-26T19:10:09.487Z,23.00
2019-05-26T19:12:39.033Z,23.06
2019-05-26T19:15:09.680Z,22.95
2019-05-26T19:17:39.139Z,22.99
2019-05-26T19:20:16.278Z,23.00
2019-05-26T19:22:41.468Z,22.64
2019-05-26T19:25:11.179Z,22.70
2019-05-26T19:27:40.624Z,22.73
2019-05-26T19:30:11.218Z,22.46
2019-05-26T19:32:40.757Z,22.61
2019-05-26T19:35:10.609Z,22.70
2019-05-26T19:37:40.170Z,22.68
2019-05-26T19:40:11.049Z,22.40
2019-05-26T19:42:40.540Z,22.69
2019-05-26T19:45:10.389Z,22.88
2019-05-26T19:47:39.836Z,22.99
2019-05-26T19:50:09.725Z,23.07
2019-05-26T19:52:39.197Z,22.92
2019-05-26T19:55:09.088Z,23.07
2019-05-26T19:57:38.702Z,23.05
2019-05-26T20:00:14.663Z,22.98
2019-05-26T20:02:44.199Z,23.00
2019-05-26T20:05:15.422Z,23.02
2019-05-26T20:07:44.944Z,23.14
2019-05-26T20:10:15.735Z,23.13
2019-05-26T20:12:45.510Z,22.98
2019-05-26T20:15:16.553Z,22.95
2019-05-26T20:17:46.094Z,22.92
2019-05-26T20:20:15.941Z,22.86
2019-05-26T20:22:45.456Z,23.02
2019-05-26T20:25:16.170Z,22.88
2019-05-26T20:27:45.618Z,22.76
2019-05-26T20:30:15.696Z,22.73
2019-05-26T20:32:45.114Z,22.57
2019-05-26T20:35:14.834Z,22.67
2019-05-26T20:37:44.301Z,22.56
2019-05-26T20:40:14.353Z,22.74
2019-05-26T20:42:43.799Z,22.72
2019-05-26T20:45:15.181Z,22.81
2019-05-26T20:47:44.612Z,22.86
2019-05-26T20:50:28.082Z,22.95
2019-05-26T20:52:46.185Z,23.01
2019-05-26T20:55:16.354Z,23.04
2019-05-26T20:57:45.805Z,23.05
2019-05-26T21:00:17.661Z,23.07
2019-05-26T21:02:47.183Z,23.11
2019-05-26T21:05:16.968Z,23.11
2019-05-26T21:07:46.442Z,23.04
2019-05-26T21:10:15.965Z,22.99
2019-05-26T21:12:45.431Z,23.00
2019-05-26T21:15:15.849Z,23.00
2019-05-26T21:17:45.282Z,22.94
2019-05-26T21:20:16.151Z,22.93
2019-05-26T21:22:45.617Z,22.90
2019-05-26T21:25:15.220Z,22.94
2019-05-26T21:27:44.669Z,22.88
2019-05-26T21:30:14.463Z,22.85
2019-05-26T21:32:43.949Z,22.84
2019-05-26T21:35:15.264Z,22.70
2019-05-26T21:37:44.709Z,22.56
2019-05-26T21:40:15.306Z,22.42
2019-05-26T21:42:44.747Z,22.44
2019-05-26T21:45:15.097Z,22.47
2019-05-26T21:47:44.561Z,22.51
2019-05-26T21:50:14.615Z,22.58
2019-05-26T21:52:44.255Z,22.51
2019-05-26T21:55:15.027Z,22.51
2019-05-26T21:57:44.471Z,22.47
2019-05-26T22:00:15.993Z,22.48
2019-05-26T22:02:45.458Z,22.49
2019-05-26T22:05:15.423Z,22.46
2019-05-26T22:07:44.871Z,22.47
2019-05-26T22:10:15.232Z,22.43
2019-05-26T22:12:44.671Z,22.31
2019-05-26T22:15:14.459Z,22.29
2019-05-26T22:17:43.948Z,22.25
2019-05-26T22:20:13.888Z,22.16
2019-05-26T22:22:43.330Z,22.22
2019-05-26T22:25:12.934Z,22.22
2019-05-26T22:27:42.378Z,22.22
2019-05-26T22:30:12.127Z,22.31
2019-05-26T22:32:41.595Z,22.35
2019-05-26T22:35:11.593Z,22.27
2019-05-26T22:37:41.283Z,22.28
2019-05-26T22:40:11.040Z,22.30
2019-05-26T22:42:40.500Z,22.28
2019-05-26T22:45:10.476Z,22.08
2019-05-26T22:47:39.936Z,21.91
2019-05-26T22:50:10.110Z,21.99
2019-05-26T22:52:39.555Z,21.79
2019-05-26T22:55:09.612Z,21.88
2019-05-26T22:57:39.076Z,21.75
2019-05-26T23:00:14.978Z,21.75
2019-05-26T23:02:44.421Z,21.64
2019-05-26T23:05:14.072Z,21.66
2019-05-26T23:07:43.533Z,21.77
2019-05-26T23:10:13.231Z,21.85
2019-05-26T23:12:42.708Z,21.94
2019-05-26T23:15:12.828Z,21.99
2019-05-26T23:17:42.236Z,21.97
2019-05-26T23:20:12.339Z,21.88
2019-05-26T23:22:41.854Z,21.96
2019-05-26T23:25:11.567Z,21.85
2019-05-26T23:27:40.997Z,21.83
2019-05-26T23:30:10.740Z,21.68
2019-05-26T23:32:40.202Z,21.54
2019-05-26T23:35:09.714Z,21.41
2019-05-26T23:37:39.182Z,21.51
2019-05-26T23:40:09.134Z,21.19
2019-05-26T23:42:38.591Z,21.43
2019-05-26T23:45:08.470Z,21.21
2019-05-26T23:47:38.004Z,21.22
2019-05-26T23:50:07.970Z,21.22
2019-05-26T23:52:37.410Z,21.23
2019-05-26T23:55:08.064Z,21.12
2019-05-26T23:57:37.524Z,21.20
